Time;durP1;ratioP1;P1;durP2;ratioP2;P2;SDS_P1;SDS_P2;PMS_P1;PMS_P2;Temp;Humidity;BMP_temperature;BMP_pressure;BME280_temperature;BME280_humidity;BME280_pressure;Samples;Min_cycle;Max_cycle;Signal;HPM_P1;HPM_P2
2022/05/12 00:00:16;;;;;;;5.30;2.90;;;;;;;9.01;58.03;98690.11;104669;1274;75725;-26
2022/05/12 00:02:45;;;;;;;5.30;2.80;;;;;;;8.95;58.36;98688.86;104719;1274;74570;-25
2022/05/12 00:05:14;;;;;;;6.00;3.00;;;;;;;8.94;57.82;98687.21;104671;1274;61140;-25
2022/05/12 00:07:43;;;;;;;8.90;3.00;;;;;;;9.00;57.39;98685.52;104669;1278;61840;-25
2022/05/12 00:10:13;;;;;;;5.10;2.30;;;;;;;9.10;56.97;98686.80;104687;1274;72749;-25
2022/05/12 00:12:42;;;;;;;5.60;2.40;;;;;;;9.18;56.35;98684.38;104515;1274;75998;-25
2022/05/12 00:15:16;;;;;;;6.30;2.40;;;;;;;9.31;56.16;98683.67;104516;1277;74413;-26
2022/05/12 00:17:44;;;;;;;5.50;1.90;;;;;;;9.45;55.53;98683.27;104639;1275;61182;-26
2022/05/12 00:20:15;;;;;;;5.40;2.60;;;;;;;9.57;55.28;98678.67;104724;1274;60998;-26
2022/05/12 00:22:43;;;;;;;4.50;2.20;;;;;;;9.59;55.69;98677.25;104721;1274;74230;-26
2022/05/12 00:25:14;;;;;;;5.70;2.50;;;;;;;9.58;55.55;98674.95;104917;1274;75029;-26
2022/05/12 00:27:43;;;;;;;9.10;2.50;;;;;;;9.58;55.73;98672.33;104695;1275;74418;-26
2022/05/12 00:30:12;;;;;;;6.40;2.60;;;;;;;9.62;55.38;98671.94;104871;1274;61056;-26
2022/05/12 00:32:47;;;;;;;5.60;2.30;;;;;;;9.70;55.27;98667.54;104476;1277;61156;-26
2022/05/12 00:35:16;;;;;;;3.60;2.10;;;;;;;9.75;55.32;98665.21;104735;1274;74755;-26
2022/05/12 00:37:44;;;;;;;7.30;2.60;;;;;;;9.77;54.92;98667.06;104681;1275;73974;-26
2022/05/12 00:40:14;;;;;;;8.70;3.00;;;;;;;9.83;54.91;98667.61;104756;1274;74540;-26
2022/05/12 00:43:03;;;;;;;7.10;2.70;;;;;;;9.88;54.74;98669.80;104751;1277;61239;-26
2022/05/12 00:45:35;;;;;;;7.50;2.80;;;;;;;9.91;54.66;98670.23;104660;1275;61161;-26
2022/05/12 00:48:04;;;;;;;12.10;3.10;;;;;;;9.96;54.61;98667.55;104315;1275;73684;-26
2022/05/12 00:50:42;;;;;;;4.20;2.90;;;;;;;9.98;54.47;98666.41;104671;1277;76475;-26
2022/05/12 00:53:11;;;;;;;9.90;2.90;;;;;;;10.02;54.18;98663.86;104721;1274;73231;-27
2022/05/12 00:55:41;;;;;;;5.80;3.00;;;;;;;10.02;54.25;98667.80;104676;1274;62114;-27
2022/05/12 00:58:12;;;;;;;6.80;2.90;;;;;;;10.03;54.04;98665.80;104687;1276;61235;-26
2022/05/12 01:00:41;;;;;;;14.10;3.80;;;;;;;10.04;54.02;98664.66;104708;1274;74882;-26
2022/05/12 01:03:13;;;;;;;4.00;2.60;;;;;;;10.01;54.22;98666.18;104854;1274;75983;-26
2022/05/12 01:05:42;;;;;;;7.00;3.00;;;;;;;9.95;54.58;98668.90;104716;1274;74404;-26
2022/05/12 01:08:12;;;;;;;10.20;3.20;;;;;;;9.92;54.44;98673.16;104702;1274;61901;-26
2022/05/12 01:10:41;;;;;;;5.40;2.80;;;;;;;9.87;54.67;98676.53;104572;1274;62127;-26
2022/05/12 01:13:09;;;;;;;7.20;3.10;;;;;;;9.82;54.70;98672.91;104649;1275;75410;-26
2022/05/12 01:15:38;;;;;;;6.10;3.00;;;;;;;9.83;54.57;98666.08;104727;1274;76363;-26
2022/05/12 01:18:17;;;;;;;6.10;2.90;;;;;;;9.82;54.81;98665.09;104733;1274;74384;-26
2022/05/12 01:20:46;;;;;;;9.10;3.10;;;;;;;9.74;55.19;98666.67;104483;1274;62147;-26
2022/05/12 01:23:26;;;;;;;6.70;3.00;;;;;;;9.63;55.52;98656.81;104600;1274;61092;-26
2022/05/12 01:26:00;;;;;;;5.80;2.90;;;;;;;9.48;56.32;98657.88;104644;1274;75588;-26
2022/05/12 01:28:28;;;;;;;;;;;;;;;9.32;56.66;98649.88;104721;1275;75020;-26
2022/05/12 01:30:59;;;;;;;9.50;2.90;;;;;;;9.21;57.25;98650.90;104717;1274;74239;-26
2022/05/12 01:33:27;;;;;;;9.00;3.20;;;;;;;9.08;57.98;98646.75;104597;1275;61112;-26
2022/05/12 01:35:56;;;;;;;9.70;3.00;;;;;;;8.94;58.66;98647.52;104710;1274;61119;-27
2022/05/12 01:38:25;;;;;;;5.60;3.40;;;;;;;8.83;58.97;98646.23;104831;1274;75351;-26
2022/05/12 01:40:53;;;;;;;7.70;3.10;;;;;;;8.80;59.12;98638.69;104835;1274;76453;-26
2022/05/12 01:43:21;;;;;;;11.30;3.70;;;;;;;8.77;59.77;98636.94;104601;1274;74606;-26
2022/05/12 01:45:50;;;;;;;5.90;2.80;;;;;;;8.78;59.54;98639.48;104606;1274;61942;-26
2022/05/12 01:48:18;;;;;;;7.50;3.00;;;;;;;8.99;58.80;98638.70;104633;1274;61162;-26
2022/05/12 01:50:47;;;;;;;4.50;2.40;;;;;;;9.21;58.47;98640.73;104629;1274;75586;-26
2022/05/12 01:53:16;;;;;;;4.90;2.50;;;;;;;9.38;57.69;98636.20;104633;1274;76001;-27
2022/05/12 01:55:48;;;;;;;6.60;3.00;;;;;;;9.50;57.32;98637.45;104556;1278;74893;-26
2022/05/12 01:58:18;;;;;;;4.30;2.40;;;;;;;9.59;57.36;98637.73;104822;1274;61826;-27
2022/05/12 02:00:46;;;;;;;10.70;3.50;;;;;;;9.61;57.49;98634.97;104630;1274;61197;-26
2022/05/12 02:03:15;;;;;;;4.60;2.60;;;;;;;9.63;56.92;98633.40;104753;1274;74237;-26
2022/05/12 02:05:44;;;;;;;5.40;2.50;;;;;;;9.67;56.98;98637.41;104795;1274;75810;-26
2022/05/12 02:08:13;;;;;;;7.50;3.30;;;;;;;9.70;56.96;98633.95;104933;1274;74365;-26
2022/05/12 02:10:45;;;;;;;5.90;3.00;;;;;;;9.75;56.63;98636.08;104570;1274;61989;-27
2022/05/12 02:13:14;;;;;;;6.10;2.30;;;;;;;9.80;56.56;98633.40;104587;1275;61446;-26
2022/05/12 02:15:42;;;;;;;6.40;2.70;;;;;;;9.81;56.91;98626.86;104585;1277;74576;-26
2022/05/12 02:18:11;;;;;;;10.20;3.00;;;;;;;9.75;57.11;98631.19;104649;1275;76088;-26
2022/05/12 02:20:40;;;;;;;6.50;2.80;;;;;;;9.76;56.77;98633.55;104576;1274;73337;-26
2022/05/12 02:23:08;;;;;;;7.30;2.60;;;;;;;9.83;56.67;98630.33;104620;1274;61889;-26
2022/05/12 02:25:37;;;;;;;6.50;2.10;;;;;;;9.93;56.55;98631.63;104593;1277;61143;-26
2022/05/12 02:28:06;;;;;;;7.70;2.70;;;;;;;10.02;56.42;98634.73;104782;1274;75664;-26
2022/05/12 02:30:36;;;;;;;8.00;2.80;;;;;;;10.07;56.22;98634.74;104874;1274;76143;-26
2022/05/12 02:33:05;;;;;;;6.70;2.50;;;;;;;10.14;56.30;98635.89;104807;1274;74333;-26
2022/05/12 02:35:33;;;;;;;5.30;2.50;;;;;;;10.20;56.20;98630.37;104588;1277;61960;-26
2022/05/12 02:38:16;;;;;;;8.20;2.60;;;;;;;10.28;55.87;98627.73;104574;1274;61110;-26
2022/05/12 02:40:45;;;;;;;6.40;2.40;;;;;;;10.35;55.77;98627.13;104660;1274;75566;-26
2022/05/12 02:43:25;;;;;;;6.60;2.50;;;;;;;10.41;56.21;98628.60;104712;1274;75890;-26
2022/05/12 02:46:02;;;;;;;4.60;2.60;;;;;;;10.47;55.85;98629.83;104604;1274;74774;-26
2022/05/12 02:48:33;;;;;;;7.30;2.30;;;;;;;10.55;55.80;98629.43;104598;1275;61010;-26
2022/05/12 02:51:02;;;;;;;3.50;2.10;;;;;;;10.62;55.50;98630.09;104742;1275;61095;-26
2022/05/12 02:53:31;;;;;;;4.70;2.30;;;;;;;10.70;55.51;98634.37;104610;1274;75618;-26
2022/05/12 02:55:59;;;;;;;3.80;2.30;;;;;;;10.78;54.94;98633.50;104641;1277;76107;-26
2022/05/12 02:58:28;;;;;;;4.00;2.40;;;;;;;10.86;54.54;98633.27;104602;1274;73175;-26
2022/05/12 03:00:57;;;;;;;6.80;2.30;;;;;;;10.93;54.57;98631.66;104644;1274;61045;-26
2022/05/12 03:03:27;;;;;;;6.00;2.40;;;;;;;10.96;55.21;98628.59;104798;1274;61077;-26
2022/05/12 03:05:55;;;;;;;5.00;2.30;;;;;;;10.96;55.30;98632.45;104761;1274;75341;-26
2022/05/12 03:08:24;;;;;;;4.90;2.20;;;;;;;10.93;56.00;98631.69;104857;1274;75982;-26
2022/05/12 03:10:53;;;;;;;5.70;2.60;;;;;;;10.91;55.41;98628.06;104653;1273;74410;-26
2022/05/12 03:13:23;;;;;;;4.50;2.40;;;;;;;10.95;55.41;98626.98;104610;1274;61242;-26
2022/05/12 03:15:51;;;;;;;3.50;2.20;;;;;;;10.98;55.15;98628.80;104734;1274;61237;-26
2022/05/12 03:18:21;;;;;;;7.70;2.70;;;;;;;11.02;55.55;98627.05;104633;1275;75478;-26
2022/05/12 03:20:50;;;;;;;8.40;2.70;;;;;;;11.09;55.92;98630.23;104678;1274;76320;-26
2022/05/12 03:23:23;;;;;;;4.30;2.20;;;;;;;11.06;56.20;98629.23;104666;1274;75039;-26
2022/05/12 03:25:53;;;;;;;8.80;2.90;;;;;;;11.07;56.00;98628.71;104584;1277;61148;-26
2022/05/12 03:28:22;;;;;;;6.70;2.50;;;;;;;11.11;56.05;98629.69;104619;1274;61228;-26
2022/05/12 03:30:50;;;;;;;14.80;3.00;;;;;;;11.18;55.90;98630.80;104587;1274;75526;-26
2022/05/12 03:33:19;;;;;;;3.40;2.50;;;;;;;11.22;56.17;98627.36;104767;1274;75996;-26
2022/05/12 03:35:49;;;;;;;5.40;2.10;;;;;;;11.25;56.17;98624.96;104599;1274;74293;-27
2022/05/12 03:38:18;;;;;;;5.60;2.50;;;;;;;11.40;55.93;98628.80;104762;1274;62114;-26
2022/05/12 03:40:47;;;;;;;9.20;2.30;;;;;;;11.61;55.51;98627.43;104495;1275;61985;-26
2022/05/12 03:44:46;;;;;;;5.90;2.50;;;;;;;11.82;55.19;98624.48;104677;1274;75993;-26
2022/05/12 03:46:05;;;;;;;4.10;2.60;;;;;;;12.04;54.77;98628.19;104703;1274;76060;-26
2022/05/12 03:48:37;;;;;;;9.90;2.70;;;;;;;12.21;54.62;98628.89;104502;1274;74273;-26
2022/05/12 03:51:06;;;;;;;4.00;2.40;;;;;;;12.37;54.56;98623.50;104361;1274;61128;-26
2022/05/12 03:53:35;;;;;;;6.00;2.90;;;;;;;12.55;54.30;98624.63;104631;1274;61078;-26
2022/05/12 03:56:05;;;;;;;7.30;3.30;;;;;;;12.72;53.90;98621.98;104532;1274;74199;-26
2022/05/12 03:58:35;;;;;;;7.20;3.20;;;;;;;12.88;53.48;98617.29;104667;1274;74407;-26
2022/05/12 04:01:04;;;;;;;7.20;2.70;;;;;;;13.04;53.04;98614.23;104784;1274;72181;-27
2022/05/12 04:03:33;;;;;;;3.80;2.70;;;;;;;13.17;53.19;98611.27;104840;1274;61321;-26
2022/05/12 04:06:04;;;;;;;5.10;2.70;;;;;;;13.29;53.12;98618.09;104894;1272;61015;-26
2022/05/12 04:08:33;;;;;;;6.30;3.40;;;;;;;13.45;52.78;98617.39;104791;1272;75575;-26
2022/05/12 04:11:02;;;;;;;8.00;3.30;;;;;;;13.61;52.67;98615.70;104834;1273;75068;-26
2022/05/12 04:13:30;;;;;;;4.90;2.80;;;;;;;13.68;52.82;98618.42;105144;1271;74349;-26
2022/05/12 04:15:59;;;;;;;6.20;3.30;;;;;;;13.70;52.90;98616.88;105116;1271;62683;-26
2022/05/12 04:18:27;;;;;;;5.80;3.40;;;;;;;13.84;53.01;98616.50;105125;1271;61930;-26
2022/05/12 04:20:56;;;;;;;8.00;3.30;;;;;;;13.98;52.64;98617.20;105121;1271;74507;-26
2022/05/12 04:23:24;;;;;;;5.10;3.00;;;;;;;14.15;52.38;98615.10;104885;1271;75666;-26
2022/05/12 04:25:56;;;;;;;6.20;3.00;;;;;;;14.35;52.39;98617.61;104989;1272;74368;-25
2022/05/12 04:28:25;;;;;;;10.80;3.00;;;;;;;14.50;52.20;98613.95;104837;1271;61813;-26
2022/05/12 04:30:53;;;;;;;7.80;2.70;;;;;;;14.63;51.85;98613.80;104766;1271;62093;-26
2022/05/12 04:36:09;;;;;;;4.70;2.80;;;;;;;14.97;51.54;98608.35;104715;1274;74270;-26
2022/05/12 04:38:37;;;;;;;5.50;3.30;;;;;;;15.17;51.65;98613.77;104767;1272;74239;-26
2022/05/12 04:41:08;;;;;;;8.20;3.40;;;;;;;15.20;51.58;98611.73;105025;1271;61102;-26
2022/05/12 04:43:37;;;;;;;5.40;3.00;;;;;;;15.23;51.32;98611.73;105127;1274;61186;-26
2022/05/12 04:46:06;;;;;;;6.10;2.90;;;;;;;15.28;51.46;98612.05;105169;1271;74703;-26
2022/05/12 04:48:36;;;;;;;6.60;2.70;;;;;;;15.43;51.90;98609.61;105012;1271;74503;-26
2022/05/12 04:51:04;;;;;;;8.80;3.70;;;;;;;15.59;50.89;98607.47;104758;1271;74375;-27
2022/05/12 04:53:33;;;;;;;4.90;2.70;;;;;;;15.70;51.23;98606.81;104834;1271;62145;-26
2022/05/12 04:56:01;;;;;;;9.10;3.50;;;;;;;15.75;50.85;98601.66;104903;1271;61096;-26
2022/05/12 04:58:31;;;;;;;6.50;3.20;;;;;;;15.85;51.05;98602.92;104853;1271;75157;-26
2022/05/12 05:00:59;;;;;;;5.90;2.80;;;;;;;16.01;51.32;98601.83;104894;1271;76037;-26
2022/05/12 05:03:28;;;;;;;9.30;3.00;;;;;;;16.24;50.63;98603.91;104764;1272;74212;-26
2022/05/12 05:05:58;;;;;;;6.30;2.90;;;;;;;16.39;50.33;98600.64;104849;1271;62201;-25
2022/05/12 05:08:26;;;;;;;6.00;2.90;;;;;;;16.57;50.37;98602.09;105074;1271;60983;-25
2022/05/12 05:10:56;;;;;;;8.80;3.10;;;;;;;16.82;49.93;98604.23;104759;1271;75393;-25
2022/05/12 05:13:24;;;;;;;5.00;2.80;;;;;;;17.06;49.28;98601.65;104984;1271;76241;-25
2022/05/12 05:15:53;;;;;;;6.30;2.80;;;;;;;17.35;48.65;98604.80;104820;1272;74501;-25
2022/05/12 05:18:22;;;;;;;5.50;2.60;;;;;;;17.50;49.04;98606.72;104875;1270;61147;-26
2022/05/12 05:20:52;;;;;;;4.70;2.90;;;;;;;17.69;48.36;98605.35;104892;1271;61027;-25
2022/05/12 05:23:21;;;;;;;7.80;3.30;;;;;;;18.01;47.90;98603.05;104935;1271;75468;-25
2022/05/12 05:25:50;;;;;;;6.40;2.60;;;;;;;18.34;47.31;98602.11;104899;1269;76141;-25
2022/05/12 05:28:19;;;;;;;5.50;2.80;;;;;;;18.61;46.46;98601.80;105137;1271;74407;-26
2022/05/12 05:30:48;;;;;;;8.80;3.00;;;;;;;18.72;46.29;98599.84;105029;1271;61137;-26
2022/05/12 05:33:16;;;;;;;3.80;2.70;;;;;;;18.95;46.27;98601.35;104896;1271;61141;-26
2022/05/12 05:35:45;;;;;;;6.70;2.80;;;;;;;19.20;45.85;98593.36;104842;1271;75609;-26
2022/05/12 05:38:14;;;;;;;4.50;2.60;;;;;;;19.38;44.96;98600.66;104901;1271;75979;-26
2022/05/12 05:40:43;;;;;;;8.20;2.50;;;;;;;19.44;44.96;98596.02;104897;1271;74485;-26
2022/05/12 05:43:14;;;;;;;3.20;2.60;;;;;;;19.64;44.59;98597.44;104920;1271;61245;-26
2022/05/12 05:45:44;;;;;;;5.90;2.70;;;;;;;19.81;44.29;98592.61;104789;1271;62025;-26
2022/05/12 05:48:13;;;;;;;6.80;3.00;;;;;;;19.94;44.45;98592.00;104802;1272;75546;-25
2022/05/12 05:53:36;;;;;;;5.80;2.80;;;;;;;20.29;43.55;98583.78;104990;1271;74154;-25
2022/05/12 05:56:05;;;;;;;;;;;;;;;20.36;43.11;98586.55;104783;1272;62216;-25
2022/05/12 05:58:33;;;;;;;6.10;2.40;;;;;;;20.48;43.25;98583.05;104806;1271;61588;-25
2022/05/12 06:01:02;;;;;;;8.00;2.80;;;;;;;20.66;42.69;98580.05;104792;1271;75580;-25
2022/05/12 06:03:30;;;;;;;5.70;3.10;;;;;;;20.86;42.14;98581.27;104807;1271;75810;-25
2022/05/12 06:05:59;;;;;;;4.10;2.60;;;;;;;20.94;41.99;98581.35;104928;1269;74257;-25
2022/05/12 06:08:27;;;;;;;3.90;2.90;;;;;;;21.06;41.92;98578.98;104720;1274;61151;-25
2022/05/12 06:11:04;;;;;;;6.80;2.90;;;;;;;21.21;41.49;98576.44;104856;1271;61154;-25
2022/05/12 06:13:33;;;;;;;4.10;2.60;;;;;;;21.16;41.49;98573.84;104905;1271;75998;-25
2022/05/12 06:16:02;;;;;;;2.50;2.10;;;;;;;21.23;41.35;98569.92;104813;1271;76150;-25
2022/05/12 06:18:31;;;;;;;4.90;2.80;;;;;;;21.29;41.21;98572.42;104954;1271;74399;-25
2022/05/12 06:21:00;;;;;;;4.60;2.40;;;;;;;21.48;41.52;98568.67;104829;1271;61825;-25
2022/05/12 06:23:28;;;;;;;4.90;2.70;;;;;;;21.67;41.05;98568.90;104905;1271;61132;-25
2022/05/12 06:25:57;;;;;;;6.20;2.60;;;;;;;21.85;40.85;98568.96;104897;1271;75809;-25
2022/05/12 06:28:28;;;;;;;3.30;2.70;;;;;;;22.15;40.81;98571.95;104902;1271;75987;-25
2022/05/12 06:30:56;;;;;;;4.90;3.10;;;;;;;22.28;39.97;98565.11;104932;1271;72359;-25
2022/05/12 06:33:25;;;;;;;5.20;2.90;;;;;;;22.40;40.01;98567.20;104943;1271;61144;-25
2022/05/12 06:35:58;;;;;;;6.10;3.00;;;;;;;22.51;39.92;98564.05;104950;1271;61057;-25
2022/05/12 06:38:26;;;;;;;9.30;3.30;;;;;;;22.69;39.16;98555.14;104832;1271;75583;-25
2022/05/12 06:40:55;;;;;;;7.00;2.80;;;;;;;22.80;38.69;98554.94;105027;1271;76011;-25
2022/05/12 06:43:24;;;;;;;15.60;3.00;;;;;;;22.88;38.30;98553.55;104913;1271;74395;-25
2022/05/12 06:45:55;;;;;;;3.90;2.70;;;;;;;23.00;39.48;98556.42;104925;1271;61816;-25
2022/05/12 06:48:25;;;;;;;4.50;2.80;;;;;;;23.13;38.64;98549.95;104710;1271;61116;-25
2022/05/12 06:50:54;;;;;;;5.40;2.70;;;;;;;23.33;38.79;98551.70;104893;1271;75519;-25
2022/05/12 06:53:22;;;;;;;9.60;2.60;;;;;;;23.49;37.40;98546.73;104835;1271;74980;-25
2022/05/12 06:55:51;;;;;;;4.30;2.40;;;;;;;23.50;37.54;98539.69;104666;1271;74235;-25
2022/05/12 06:58:19;;;;;;;3.50;2.40;;;;;;;23.57;37.53;98536.10;104949;1271;62169;-25
2022/05/12 07:00:48;;;;;;;7.20;2.60;;;;;;;23.66;36.93;98536.66;104929;1271;61017;-25
2022/05/12 07:03:19;;;;;;;4.80;2.60;;;;;;;23.67;36.37;98538.23;104851;1271;75530;-25
2022/05/12 07:05:47;;;;;;;18.60;3.30;;;;;;;23.53;36.83;98534.86;104831;1271;75408;-25
2022/05/12 07:08:17;;;;;;;5.00;2.30;;;;;;;23.59;37.86;98532.59;104930;1271;73448;-25
2022/05/12 07:10:48;;;;;;;3.70;2.20;;;;;;;23.71;36.98;98533.19;104731;1271;62454;-25
2022/05/12 07:13:20;;;;;;;4.50;2.70;;;;;;;23.87;36.28;98531.35;104993;1271;61153;-25
2022/05/12 07:15:50;;;;;;;5.70;2.80;;;;;;;23.80;36.34;98533.13;105129;1271;75917;-25
2022/05/12 07:18:19;;;;;;;3.30;2.50;;;;;;;23.90;36.78;98532.05;105148;1271;75646;-25
2022/05/12 07:26:44;;;;;;;4.10;2.80;;;;;;;24.48;36.54;98530.73;104819;1271;61037;-26
2022/05/12 07:29:18;;;;;;;9.60;2.30;;;;;;;24.72;35.42;98523.11;104801;1271;75560;-26
2022/05/12 07:31:48;;;;;;;;;;;;;;;24.77;35.42;98519.79;104805;1271;75784;-26
2022/05/12 07:34:18;;;;;;;5.00;2.30;;;;;;;24.87;35.49;98517.98;104652;1274;74386;-26
2022/05/12 07:36:50;;;;;;;4.10;2.20;;;;;;;24.87;34.65;98518.41;104771;1271;62122;-26
2022/05/12 07:39:28;;;;;;;4.10;2.90;;;;;;;24.87;34.90;98510.48;104788;1271;61119;-26
2022/05/12 07:41:58;;;;;;;5.10;2.20;;;;;;;25.16;34.61;98511.95;105111;1271;75544;-25
2022/05/12 07:44:34;;;;;;;35.70;3.90;;;;;;;25.49;34.18;98508.86;104898;1271;76184;-25
2022/05/12 07:47:09;;;;;;;5.40;2.40;;;;;;;25.56;33.69;98504.48;105009;1271;73888;-25
2022/05/12 07:49:37;;;;;;;4.80;2.40;;;;;;;25.62;33.28;98505.70;104767;1271;62087;-25
2022/05/12 07:52:08;;;;;;;5.80;2.50;;;;;;;25.73;33.67;98503.09;104863;1271;61809;-25
2022/05/12 07:54:37;;;;;;;4.40;2.30;;;;;;;25.78;33.53;98502.82;104722;1271;75663;-25
2022/05/12 07:57:06;;;;;;;3.80;2.30;;;;;;;25.94;33.46;98501.30;105109;1271;75988;-25
2022/05/12 07:59:44;;;;;;;4.70;2.40;;;;;;;25.99;33.60;98498.92;105123;1271;73400;-25
2022/05/12 08:02:16;;;;;;;4.10;2.20;;;;;;;25.95;33.07;98494.17;104924;1271;62583;-25
2022/05/12 08:04:46;;;;;;;6.50;2.50;;;;;;;25.89;32.48;98496.39;104911;1271;61633;-25
2022/05/12 08:07:15;;;;;;;7.30;2.20;;;;;;;25.96;33.36;98494.50;104872;1271;74806;-25
2022/05/12 08:09:44;;;;;;;6.30;2.90;;;;;;;26.15;32.16;98478.52;104888;1272;75253;-25
2022/05/12 08:12:15;;;;;;;8.90;2.10;;;;;;;26.28;31.58;98485.04;104964;1271;74336;-25
2022/05/12 08:14:44;;;;;;;8.10;2.70;;;;;;;26.35;32.53;98481.63;104801;1271;61134;-25
2022/05/12 08:17:13;;;;;;;7.80;2.70;;;;;;;26.57;32.05;98480.36;104963;1271;61294;-25
2022/05/12 08:19:42;;;;;;;2.70;2.00;;;;;;;26.66;30.83;98470.92;104750;1274;75322;-26
2022/05/12 08:22:11;;;;;;;5.80;2.50;;;;;;;26.64;31.02;98469.20;104924;1271;75957;-25
2022/05/12 08:24:40;;;;;;;6.10;2.20;;;;;;;26.54;31.44;98471.50;104824;1271;74559;-25
2022/05/12 08:27:08;;;;;;;8.10;2.70;;;;;;;26.59;31.45;98466.34;104806;1271;61269;-25
2022/05/12 08:29:38;;;;;;;6.40;2.40;;;;;;;26.75;32.23;98471.06;104778;1271;61991;-25
2022/05/12 08:32:07;;;;;;;7.10;2.40;;;;;;;26.89;31.01;98460.92;104991;1271;74177;-26
2022/05/12 08:34:36;;;;;;;5.10;2.30;;;;;;;26.97;31.07;98468.11;104794;1271;75832;-25
2022/05/12 08:37:04;;;;;;;7.50;2.70;;;;;;;26.92;30.80;98461.88;104935;1271;74539;-25
2022/05/12 08:39:35;;;;;;;5.20;2.50;;;;;;;26.99;30.52;98464.35;105039;1271;61124;-25
2022/05/12 08:42:19;;;;;;;4.70;2.10;;;;;;;27.02;30.17;98450.02;104933;1271;61158;-25
2022/05/12 08:44:48;;;;;;;5.80;2.60;;;;;;;27.00;30.36;98459.62;104971;1271;75364;-25
2022/05/12 08:47:23;;;;;;;5.00;2.10;;;;;;;27.03;30.42;98453.20;104832;1271;76147;-25
2022/05/12 08:49:52;;;;;;;4.50;2.20;;;;;;;27.12;30.21;98445.23;104826;1271;73219;-25
2022/05/12 08:52:25;;;;;;;5.60;2.50;;;;;;;27.22;30.81;98450.27;104941;1270;61122;-25
2022/05/12 08:55:18;;;;;;;3.30;2.40;;;;;;;27.35;30.47;98448.83;104752;1271;61102;-26
2022/05/12 08:57:59;;;;;;;5.80;2.50;;;;;;;27.41;30.10;98448.50;104774;1271;75318;-25
2022/05/12 09:00:33;;;;;;;5.70;2.30;;;;;;;27.42;29.55;98437.72;105127;1271;74980;-25
2022/05/12 09:03:11;;;;;;;4.60;2.40;;;;;;;27.39;29.69;98443.35;105081;1271;74509;-25
2022/05/12 09:05:43;;;;;;;7.70;2.30;;;;;;;27.48;29.02;98437.05;104982;1271;60942;-26
2022/05/12 09:08:57;;;;;;;5.60;2.50;;;;;;;27.50;29.04;98432.73;104429;1271;390073;-26
2022/05/12 09:11:45;;;;;;;;;;;;;;;27.69;29.39;98437.77;104743;1274;75471;-26
2022/05/12 09:14:17;;;;;;;5.40;2.00;;;;;;;27.14;29.77;98416.89;104823;1271;74969;-26
2022/05/12 09:16:47;;;;;;;5.00;2.40;;;;;;;27.54;29.73;98432.84;104979;1271;74244;-26
2022/05/12 09:19:15;;;;;;;8.90;2.30;;;;;;;27.70;29.08;98415.20;104670;1271;61114;-26
2022/05/12 09:21:44;;;;;;;4.10;2.20;;;;;;;27.78;27.99;98423.45;104697;1274;61132;-26
2022/05/12 09:24:13;;;;;;;7.90;2.30;;;;;;;27.91;28.83;98420.94;104900;1271;75964;-26
2022/05/12 09:27:05;;;;;;;5.70;2.40;;;;;;;28.13;28.52;98419.75;104870;1271;76008;-26
2022/05/12 09:29:44;;;;;;;5.00;2.50;;;;;;;28.24;27.95;98415.14;104837;1271;74519;-26
2022/05/12 09:32:13;;;;;;;9.80;2.00;;;;;;;28.32;28.45;98409.72;105147;1271;62994;-26
2022/05/12 09:34:46;;;;;;;3.70;2.10;;;;;;;28.49;27.81;98407.69;105137;1271;61064;-26
2022/05/12 09:37:17;;;;;;;9.50;2.10;;;;;;;28.35;27.53;98399.25;105089;1271;75673;-26
2022/05/12 09:39:53;;;;;;;4.00;2.10;;;;;;;28.27;27.70;98405.09;104857;1271;75856;-27
2022/05/12 09:42:27;;;;;;;11.50;3.00;;;;;;;28.48;27.66;98401.63;104830;1271;74230;-26
2022/05/12 09:45:02;;;;;;;7.50;2.10;;;;;;;28.72;27.68;98403.75;105149;1271;62132;-26
2022/05/12 09:47:32;;;;;;;6.90;2.30;;;;;;;28.92;27.77;98401.39;104832;1271;61290;-26
2022/05/12 09:50:17;;;;;;;7.40;2.20;;;;;;;28.87;26.29;98389.90;104872;1271;74519;-26
2022/05/12 09:52:55;;;;;;;5.40;2.20;;;;;;;28.52;26.31;98380.55;104778;1271;75437;-26
2022/05/12 09:55:30;;;;;;;4.40;2.20;;;;;;;28.65;27.00;98394.23;104702;1274;74398;-26
2022/05/12 09:58:01;;;;;;;10.60;2.10;;;;;;;28.95;26.00;98381.32;104738;1271;61005;-26
2022/05/12 10:00:30;;;;;;;4.80;1.80;;;;;;;29.06;25.94;98389.18;104966;1271;62084;-26
2022/05/12 10:09:04;;;;;;;3.70;1.80;;;;;;;29.13;26.02;98372.63;104774;1271;73285;-26
2022/05/12 10:11:41;;;;;;;3.20;2.20;;;;;;;29.32;25.81;98371.81;104787;1271;62073;-26
2022/05/12 10:14:34;;;;;;;3.80;2.00;;;;;;;29.29;24.95;98356.43;104839;1271;60891;-26
2022/05/12 10:17:05;;;;;;;8.30;2.10;;;;;;;29.36;24.48;98358.70;105052;1271;75723;-26
2022/05/12 10:19:33;;;;;;;5.50;2.10;;;;;;;29.13;24.30;98341.16;104841;1271;74996;-26
2022/05/12 10:22:31;;;;;;;4.60;1.60;;;;;;;29.04;24.37;98342.77;104530;1274;74389;-26
2022/05/12 10:25:05;;;;;;;5.60;2.00;;;;;;;29.23;24.55;98347.79;104299;1274;61528;-26
2022/05/12 10:27:51;;;;;;;7.00;2.10;;;;;;;29.25;24.13;98336.90;104491;1275;61228;-26
2022/05/12 10:30:22;;;;;;;3.40;2.00;;;;;;;29.25;23.79;98349.94;104551;1275;75523;-26
2022/05/12 10:33:10;;;;;;;5.20;2.20;;;;;;;29.29;24.29;98334.61;104558;1275;76057;-27
2022/05/12 10:35:44;;;;;;;9.50;1.90;;;;;;;29.42;24.14;98332.98;104476;1275;74465;-27
2022/05/12 10:38:49;;;;;;;3.90;1.80;;;;;;;29.36;23.88;98332.36;104322;1275;61403;-27
2022/05/12 10:41:22;;;;;;;6.00;1.80;;;;;;;29.41;23.97;98326.39;104577;1274;62152;-26
2022/05/12 10:44:37;;;;;;;3.60;1.80;;;;;;;29.44;23.97;98314.55;104373;1274;75595;-26
2022/05/12 10:47:05;;;;;;;4.40;2.20;;;;;;;29.10;24.19;98310.99;104479;1277;76325;-26
2022/05/12 10:49:34;;;;;;;6.40;2.10;;;;;;;29.01;24.75;98315.69;104694;1274;73453;-26
2022/05/12 10:52:06;;;;;;;3.60;1.70;;;;;;;29.10;24.89;98310.67;104790;1274;61237;-26
2022/05/12 10:54:36;;;;;;;;;;;;;;;29.21;23.90;98307.48;104888;1271;61257;-27
2022/05/12 10:57:27;;;;;;;4.10;1.30;;;;;;;29.31;24.18;98303.30;104840;1271;75410;-26
2022/05/12 11:00:08;;;;;;;3.90;1.90;;;;;;;29.10;24.84;98298.63;104584;1271;76071;-27
2022/05/12 11:02:45;;;;;;;2.50;1.70;;;;;;;29.24;24.31;98298.90;105110;1271;73363;-27
2022/05/12 11:05:31;;;;;;;10.60;2.20;;;;;;;29.39;23.29;98287.20;104895;1271;61189;-27
2022/05/12 11:08:20;;;;;;;11.70;1.80;;;;;;;29.20;23.77;98296.90;104951;1271;61041;-27
2022/05/12 11:10:51;;;;;;;4.20;1.90;;;;;;;29.39;24.38;98289.38;104787;1271;75564;-27
2022/05/12 11:13:37;;;;;;;4.60;1.70;;;;;;;29.46;23.49;98282.84;104776;1271;75867;-36
2022/05/12 11:16:11;;;;;;;5.00;2.00;;;;;;;29.34;23.55;98274.84;104795;1271;73137;-28
2022/05/12 11:18:46;;;;;;;5.20;2.00;;;;;;;29.27;24.53;98271.45;104772;1271;61080;-28
2022/05/12 11:21:29;;;;;;;7.80;2.10;;;;;;;29.14;25.52;98275.47;104796;1271;61966;-28
2022/05/12 11:24:11;;;;;;;5.80;2.00;;;;;;;29.23;25.14;98281.58;104940;1271;75725;-27
2022/05/12 11:27:08;;;;;;;2.90;2.00;;;;;;;29.22;25.17;98278.14;104751;1271;75065;-27
2022/05/12 11:29:55;;;;;;;6.40;2.10;;;;;;;29.33;25.02;98280.36;104693;1271;74277;-27
2022/05/12 11:32:45;;;;;;;5.10;2.20;;;;;;;29.37;25.05;98267.72;104826;1271;61234;-27
2022/05/12 11:35:17;;;;;;;3.50;2.10;;;;;;;28.96;25.50;98250.83;104904;1271;61081;-28
2022/05/12 11:37:53;;;;;;;3.70;2.20;;;;;;;28.63;26.06;98257.33;104938;1271;75585;-27
2022/05/12 11:40:40;;;;;;;8.60;2.10;;;;;;;28.72;27.21;98252.86;105138;1271;76056;-27
2022/05/12 11:46:22;;;;;;;9.70;2.30;;;;;;;28.27;27.37;98259.32;105135;1271;61140;-27
2022/05/12 11:49:02;;;;;;;5.50;2.40;;;;;;;27.93;28.17;98255.01;104952;1274;61183;-27
2022/05/12 11:51:41;;;;;;;6.20;2.50;;;;;;;28.13;27.58;98249.13;105062;1271;75515;-27
2022/05/12 11:54:26;;;;;;;3.80;2.60;;;;;;;28.38;28.23;98265.55;104791;1271;76048;-28
2022/05/12 11:56:55;;;;;;;3.30;2.20;;;;;;;28.62;27.45;98257.55;104696;1271;73371;-27
2022/05/12 11:59:30;;;;;;;12.90;2.40;;;;;;;28.68;27.51;98253.44;104894;1271;61873;-27
2022/05/12 12:02:06;;;;;;;3.80;2.00;;;;;;;28.43;27.96;98248.32;104804;1271;61214;-27
2022/05/12 12:04:48;;;;;;;8.40;2.20;;;;;;;28.28;28.48;98249.80;104615;1274;76147;-27
2022/05/12 12:07:32;;;;;;;4.40;2.30;;;;;;;28.38;28.13;98240.31;104808;1271;74993;-27
2022/05/12 12:10:04;;;;;;;4.50;2.00;;;;;;;28.44;27.99;98248.33;105111;1271;74545;-27